createdAt,value
2023-05-12T00:00:03.373Z,2093.00
2023-05-12T00:01:03.463Z,2179.00
2023-05-12T00:02:03.414Z,2125.00
2023-05-12T00:03:03.459Z,2041.00
2023-05-12T00:04:03.585Z,2095.00
2023-05-12T00:05:03.534Z,2174.00
2023-05-12T00:06:03.572Z,2261.00
2023-05-12T00:07:03.522Z,2246.00
2023-05-12T00:08:03.576Z,2224.00
2023-05-12T00:09:03.585Z,2216.00
2023-05-12T00:10:03.709Z,2231.00
2023-05-12T00:11:03.632Z,2253.00
2023-05-12T00:12:03.659Z,2217.00
2023-05-12T00:13:03.686Z,2102.00
2023-05-12T00:14:03.715Z,2027.00
2023-05-12T00:15:03.750Z,1942.00
2023-05-12T00:16:03.825Z,1922.00
2023-05-12T00:17:03.786Z,2009.00
2023-05-12T00:18:03.885Z,2013.00
2023-05-12T00:19:03.946Z,2003.00
2023-05-12T00:20:03.857Z,2034.00
2023-05-12T00:21:03.877Z,1926.00
2023-05-12T00:22:03.879Z,1915.00
2023-05-12T00:23:03.894Z,1953.00
2023-05-12T00:24:03.930Z,1959.00
2023-05-12T00:25:03.961Z,1946.00
2023-05-12T00:26:03.974Z,1964.00
2023-05-12T00:27:04.010Z,1919.00
2023-05-12T00:28:04.038Z,1968.00
2023-05-12T00:29:04.049Z,1935.00
2023-05-12T00:30:04.077Z,1944.00
2023-05-12T00:31:04.204Z,1964.00
2023-05-12T00:32:04.186Z,2063.00
2023-05-12T00:33:04.154Z,2156.00
2023-05-12T00:34:04.180Z,2224.00
2023-05-12T00:35:04.184Z,2279.00
2023-05-12T00:36:04.208Z,2358.00
2023-05-12T00:37:04.240Z,2414.00
2023-05-12T00:38:04.238Z,2397.00
2023-05-12T00:39:04.269Z,2342.00
2023-05-12T00:40:04.285Z,2422.00
2023-05-12T00:41:04.304Z,2516.00
2023-05-12T00:42:04.335Z,2572.00
2023-05-12T00:43:04.362Z,2535.00
2023-05-12T00:44:05.250Z,2464.00
2023-05-12T00:45:04.392Z,2415.00
2023-05-12T00:46:04.478Z,2414.00
2023-05-12T00:47:04.440Z,2406.00
2023-05-12T00:48:04.524Z,2427.00
2023-05-12T00:49:04.496Z,2382.00
2023-05-12T00:50:04.517Z,2337.00
2023-05-12T00:51:04.551Z,2303.00
2023-05-12T00:52:04.592Z,2309.00
2023-05-12T00:53:04.618Z,2343.00
2023-05-12T00:54:04.661Z,2351.00
2023-05-12T00:55:04.664Z,2384.00
2023-05-12T00:56:04.688Z,2411.00
2023-05-12T00:57:04.751Z,2505.00
2023-05-12T00:58:04.759Z,2497.00
2023-05-12T00:59:04.781Z,2428.00
2023-05-12T01:00:04.803Z,2438.00
2023-05-12T01:01:04.834Z,2406.00
2023-05-12T01:02:04.849Z,2369.00
2023-05-12T01:03:04.972Z,2435.00
2023-05-12T01:04:04.855Z,2466.00
2023-05-12T01:05:04.851Z,2444.00
2023-05-12T01:06:04.864Z,2439.00
2023-05-12T01:07:04.874Z,2329.00
2023-05-12T01:08:04.894Z,2338.00
2023-05-12T01:09:04.913Z,2413.00
2023-05-12T01:10:05.026Z,2483.00
2023-05-12T01:11:04.954Z,2456.00
2023-05-12T01:12:04.970Z,2416.00
2023-05-12T01:13:04.981Z,2491.00
2023-05-12T01:14:05.004Z,2515.00
2023-05-12T01:15:05.014Z,2463.00
2023-05-12T01:16:05.032Z,2434.00
2023-05-12T01:17:05.090Z,2353.00
2023-05-12T01:18:05.066Z,2297.00
2023-05-12T01:19:05.096Z,2269.00
2023-05-12T01:20:05.089Z,2315.00
2023-05-12T01:21:05.107Z,2322.00
2023-05-12T01:22:05.143Z,2407.00
2023-05-12T01:23:05.167Z,2448.00
2023-05-12T01:24:05.198Z,2454.00
2023-05-12T01:25:05.244Z,2390.00
2023-05-12T01:26:05.269Z,2376.00
2023-05-12T01:27:05.255Z,2359.00
2023-05-12T01:28:05.300Z,2400.00
2023-05-12T01:29:05.320Z,2464.00
2023-05-12T01:30:05.347Z,2492.00
2023-05-12T01:31:05.432Z,2511.00
2023-05-12T01:32:05.401Z,2531.00
2023-05-12T01:33:05.455Z,2541.00
2023-05-12T01:34:05.436Z,2539.00
2023-05-12T01:35:05.466Z,2565.00
2023-05-12T01:36:05.490Z,2587.00
2023-05-12T01:37:05.494Z,2623.00
2023-05-12T01:38:05.529Z,2638.00
2023-05-12T01:39:05.558Z,2655.00
2023-05-12T01:40:05.583Z,2659.00
2023-05-12T01:41:05.617Z,2610.00
2023-05-12T01:42:05.605Z,2558.00
2023-05-12T01:43:05.639Z,2522.00
2023-05-12T01:44:05.692Z,2530.00
2023-05-12T01:45:05.679Z,2513.00
2023-05-12T01:46:05.736Z,2461.00
2023-05-12T01:47:05.741Z,2390.00
2023-05-12T01:48:05.823Z,2388.00
2023-05-12T01:49:05.736Z,2340.00
2023-05-12T01:50:05.753Z,2270.00
2023-05-12T01:51:05.782Z,2206.00
2023-05-12T01:52:05.809Z,2214.00
2023-05-12T01:53:05.827Z,2242.00
2023-05-12T01:54:05.837Z,2307.00
2023-05-12T01:55:05.853Z,2390.00
2023-05-12T01:56:05.890Z,2471.00
2023-05-12T01:57:05.911Z,2510.00
2023-05-12T01:58:05.925Z,2555.00
2023-05-12T01:59:06.017Z,2575.00
2023-05-12T02:00:05.991Z,2570.00
2023-05-12T02:01:06.021Z,2395.00
2023-05-12T02:02:06.080Z,2250.00
2023-05-12T02:03:06.092Z,2229.00
2023-05-12T02:04:06.229Z,2256.00
2023-05-12T02:05:06.099Z,2238.00
2023-05-12T02:06:06.140Z,2172.00
2023-05-12T02:07:06.174Z,2266.00
2023-05-12T02:08:06.197Z,2341.00
2023-05-12T02:09:06.214Z,2399.00
2023-05-12T02:10:06.238Z,2422.00
2023-05-12T02:11:06.267Z,2484.00
2023-05-12T02:12:06.290Z,2513.00
2023-05-12T02:13:06.321Z,2461.00
2023-05-12T02:14:06.340Z,2461.00
2023-05-12T02:15:06.347Z,2479.00
2023-05-12T02:16:06.390Z,2476.00
2023-05-12T02:17:06.377Z,2484.00
2023-05-12T02:18:06.489Z,2487.00
2023-05-12T02:19:06.581Z,2532.00
2023-05-12T02:20:06.466Z,2540.00
2023-05-12T02:21:06.473Z,2525.00
2023-05-12T02:22:06.491Z,2484.00
2023-05-12T02:23:06.527Z,2485.00
2023-05-12T02:24:06.561Z,2544.00
2023-05-12T02:25:06.614Z,2581.00
2023-05-12T02:26:06.636Z,2583.00
2023-05-12T02:27:06.677Z,2593.00
2023-05-12T02:28:06.694Z,2581.00
2023-05-12T02:29:06.733Z,2553.00
2023-05-12T02:30:06.798Z,2513.00
2023-05-12T02:31:06.841Z,2493.00
2023-05-12T02:32:06.962Z,2462.00
2023-05-12T02:33:06.956Z,2477.00
2023-05-12T02:34:06.978Z,2458.00
2023-05-12T02:35:07.013Z,2461.00
2023-05-12T02:36:07.078Z,2459.00
2023-05-12T02:37:07.105Z,2437.00
2023-05-12T02:38:07.141Z,2391.00
2023-05-12T02:39:07.199Z,2426.00
2023-05-12T02:40:07.221Z,2443.00
2023-05-12T02:41:07.322Z,2456.00
2023-05-12T02:42:07.298Z,2522.00
2023-05-12T02:43:07.346Z,2558.00
2023-05-12T02:44:07.394Z,2558.00
2023-05-12T02:45:07.439Z,2567.00
2023-05-12T02:46:07.539Z,2560.00
2023-05-12T02:47:07.553Z,2495.00
2023-05-12T02:48:07.631Z,2455.00
2023-05-12T02:49:07.625Z,2451.00
2023-05-12T02:50:07.670Z,2449.00
2023-05-12T02:51:07.718Z,2419.00
2023-05-12T02:52:07.774Z,2441.00
2023-05-12T02:53:07.793Z,2441.00
2023-05-12T02:54:07.837Z,2469.00
2023-05-12T02:55:07.850Z,2481.00
2023-05-12T02:56:07.891Z,2536.00
2023-05-12T02:57:07.912Z,2568.00
2023-05-12T02:58:07.929Z,2570.00
2023-05-12T02:59:07.949Z,2541.00
2023-05-12T03:00:07.988Z,2518.00
2023-05-12T03:01:11.100Z,2488.00
2023-05-12T03:02:08.096Z,2466.00
2023-05-12T03:03:08.194Z,2410.00
2023-05-12T03:04:08.022Z,2377.00
2023-05-12T03:05:08.036Z,2336.00
2023-05-12T03:06:08.046Z,2327.00
2023-05-12T03:07:08.051Z,2304.00
2023-05-12T03:08:08.063Z,2282.00
2023-05-12T03:09:08.087Z,2295.00
2023-05-12T03:10:08.094Z,2388.00
2023-05-12T03:11:08.103Z,2461.00
2023-05-12T03:12:08.115Z,2503.00
2023-05-12T03:13:08.125Z,2546.00
2023-05-12T03:14:08.141Z,2548.00
2023-05-12T03:15:08.152Z,2540.00
2023-05-12T03:16:08.157Z,2508.00
2023-05-12T03:17:08.287Z,2453.00
2023-05-12T03:18:08.237Z,2449.00
2023-05-12T03:19:08.245Z,2488.00
2023-05-12T03:20:08.213Z,2467.00
2023-05-12T03:21:08.220Z,2454.00
2023-05-12T03:22:08.250Z,2446.00
2023-05-12T03:23:08.265Z,2454.00
2023-05-12T03:24:08.267Z,2365.00
2023-05-12T03:25:08.293Z,2348.00
2023-05-12T03:26:08.292Z,2353.00
2023-05-12T03:27:08.327Z,2372.00
2023-05-12T03:28:08.339Z,2472.00
2023-05-12T03:29:08.355Z,2572.00
2023-05-12T03:30:08.366Z,2591.00
2023-05-12T03:31:08.415Z,2589.00
2023-05-12T03:32:08.401Z,2580.00
2023-05-12T03:33:08.413Z,2552.00
2023-05-12T03:34:08.428Z,2489.00
2023-05-12T03:35:08.441Z,2455.00
2023-05-12T03:36:08.445Z,2402.00
2023-05-12T03:37:08.459Z,2353.00
2023-05-12T03:38:09.485Z,2354.00
2023-05-12T03:39:08.491Z,2359.00
2023-05-12T03:40:08.525Z,2372.00
2023-05-12T03:41:08.536Z,2352.00
2023-05-12T03:42:08.549Z,2339.00
2023-05-12T03:43:08.553Z,2367.00
2023-05-12T03:44:08.573Z,2376.00
2023-05-12T03:45:08.594Z,2331.00
2023-05-12T03:46:08.635Z,2349.00
2023-05-12T03:47:08.713Z,2359.00
2023-05-12T03:48:08.672Z,2361.00
2023-05-12T03:49:08.629Z,2368.00
2023-05-12T03:50:08.672Z,2404.00
2023-05-12T03:51:08.664Z,2377.00
2023-05-12T03:52:08.683Z,2372.00
2023-05-12T03:53:08.701Z,2346.00
2023-05-12T03:54:08.752Z,2334.00
2023-05-12T03:55:09.749Z,2323.00
2023-05-12T03:56:08.870Z,2357.00
2023-05-12T03:57:08.959Z,2338.00
2023-05-12T03:58:08.997Z,2364.00
2023-05-12T03:59:09.056Z,2331.00
2023-05-12T04:00:09.152Z,2328.00
2023-05-12T04:01:09.225Z,2361.00
2023-05-12T04:02:09.357Z,2284.00
2023-05-12T04:03:09.413Z,2292.00
2023-05-12T04:04:09.505Z,2334.00
2023-05-12T04:05:09.564Z,2430.00
2023-05-12T04:06:09.632Z,2493.00
2023-05-12T04:07:09.704Z,2504.00
2023-05-12T04:08:09.782Z,2524.00
2023-05-12T04:09:09.849Z,2514.00
2023-05-12T04:10:09.923Z,2482.00
2023-05-12T04:11:09.971Z,2542.00
2023-05-12T04:12:10.032Z,2603.00
2023-05-12T04:13:10.072Z,2607.00
2023-05-12T04:14:10.127Z,2616.00
2023-05-12T04:15:10.174Z,2626.00
2023-05-12T04:16:10.276Z,2600.00
2023-05-12T04:17:10.263Z,2591.00
2023-05-12T04:18:10.315Z,2595.00
2023-05-12T04:19:10.391Z,2603.00
2023-05-12T04:20:10.398Z,2631.00
2023-05-12T04:21:10.427Z,2658.00
2023-05-12T04:22:10.492Z,2647.00
2023-05-12T04:23:10.545Z,2641.00
2023-05-12T04:24:10.590Z,2672.00
2023-05-12T04:25:10.644Z,2719.00
2023-05-12T04:26:10.687Z,2732.00
2023-05-12T04:27:10.749Z,2647.00
2023-05-12T04:28:12.187Z,2618.00
2023-05-12T04:29:10.869Z,2630.00
2023-05-12T04:30:10.935Z,2614.00
2023-05-12T04:31:10.991Z,2648.00
2023-05-12T04:32:11.118Z,2655.00
2023-05-12T04:33:11.205Z,2624.00
2023-05-12T04:34:11.208Z,2592.00
2023-05-12T04:35:11.285Z,2532.00
2023-05-12T04:36:11.374Z,2462.00
2023-05-12T04:37:11.456Z,2436.00
2023-05-12T04:38:11.531Z,2444.00
2023-05-12T04:39:11.584Z,2396.00
2023-05-12T04:40:11.676Z,2374.00
2023-05-12T04:41:11.720Z,2363.00
2023-05-12T04:42:11.794Z,2308.00
2023-05-12T04:43:59.923Z,2282.00
2023-05-12T04:44:12.836Z,2240.00
2023-05-12T04:45:11.855Z,2071.00
2023-05-12T04:46:11.913Z,2043.00
2023-05-12T04:47:11.889Z,2027.00
2023-05-12T04:48:11.908Z,1991.00
2023-05-12T04:49:11.930Z,1972.00
2023-05-12T04:50:11.950Z,1935.00
2023-05-12T04:51:11.955Z,1978.00
2023-05-12T04:52:11.971Z,1982.00
2023-05-12T04:53:11.989Z,2019.00
2023-05-12T04:54:12.015Z,2044.00
2023-05-12T04:55:12.037Z,2120.00
2023-05-12T04:56:12.048Z,2261.00
2023-05-12T04:57:12.080Z,2359.00
2023-05-12T04:58:12.085Z,2435.00
2023-05-12T04:59:12.129Z,2481.00
2023-05-12T05:00:12.190Z,2429.00
2023-05-12T05:01:12.303Z,2428.00
2023-05-12T05:02:12.295Z,2424.00
2023-05-12T05:03:12.404Z,2404.00
2023-05-12T05:04:12.366Z,2356.00
2023-05-12T05:05:12.521Z,2273.00
2023-05-12T05:06:12.475Z,2232.00
2023-05-12T05:07:12.511Z,2225.00
2023-05-12T05:08:12.541Z,2180.00
2023-05-12T05:09:12.593Z,2173.00
2023-05-12T05:10:12.638Z,2077.00
2023-05-12T05:11:12.688Z,2043.00
2023-05-12T05:12:12.735Z,1979.00
2023-05-12T05:13:12.825Z,1991.00
2023-05-12T05:14:12.834Z,2058.00
2023-05-12T05:15:12.896Z,2133.00
2023-05-12T05:16:13.004Z,2248.00
2023-05-12T05:17:12.966Z,2345.00
2023-05-12T05:18:13.038Z,2391.00
2023-05-12T05:19:21.414Z,2392.00
2023-05-12T05:20:15.467Z,2394.00
2023-05-12T05:21:13.280Z,2396.00
2023-05-12T05:22:13.255Z,2410.00
2023-05-12T05:23:13.292Z,2442.00
2023-05-12T05:24:13.317Z,2498.00
2023-05-12T05:25:13.340Z,2529.00
2023-05-12T05:26:13.393Z,2526.00
2023-05-12T05:27:13.438Z,2588.00
2023-05-12T05:28:13.534Z,2640.00
2023-05-12T05:29:13.556Z,2557.00
2023-05-12T05:30:13.959Z,2479.00
2023-05-12T05:31:13.679Z,2443.00
2023-05-12T05:32:13.717Z,2466.00
2023-05-12T05:33:13.770Z,2466.00
2023-05-12T05:34:13.861Z,2446.00
2023-05-12T05:35:13.890Z,2427.00
2023-05-12T05:36:13.941Z,2451.00
2023-05-12T05:37:14.057Z,2526.00
2023-05-12T05:38:14.030Z,2527.00
2023-05-12T05:39:14.096Z,2507.00
2023-05-12T05:40:14.288Z,2475.00
2023-05-12T05:41:15.189Z,2434.00
2023-05-12T05:42:14.336Z,2457.00
2023-05-12T05:43:14.420Z,2490.00
2023-05-12T05:44:14.827Z,2472.00
2023-05-12T05:45:14.850Z,2447.00
2023-05-12T05:46:14.711Z,2422.00
2023-05-12T05:47:14.820Z,2423.00
2023-05-12T05:48:14.819Z,2475.00
2023-05-12T05:49:14.889Z,2532.00
2023-05-12T05:50:15.773Z,2520.00
2023-05-12T05:51:15.441Z,2566.00
2023-05-12T05:52:15.122Z,2580.00
2023-05-12T05:53:15.668Z,2544.00
2023-05-12T05:54:15.229Z,2572.00
2023-05-12T05:55:15.502Z,2570.00
2023-05-12T05:56:15.390Z,2609.00
2023-05-12T05:57:15.441Z,2599.00
2023-05-12T05:58:15.473Z,2535.00
2023-05-12T05:59:16.993Z,2537.00
2023-05-12T06:00:15.647Z,2541.00
2023-05-12T06:01:15.514Z,2554.00
2023-05-12T06:02:15.792Z,2572.00
2023-05-12T06:03:15.584Z,2589.00
2023-05-12T06:04:15.583Z,2595.00
2023-05-12T06:05:15.723Z,2528.00
2023-05-12T06:06:16.555Z,2529.00
2023-05-12T06:07:15.566Z,2530.00
2023-05-12T06:08:15.830Z,2515.00
2023-05-12T06:09:15.690Z,2547.00
2023-05-12T06:10:15.617Z,2520.00
2023-05-12T06:11:17.675Z,2427.00
2023-05-12T06:12:15.657Z,2384.00
2023-05-12T06:13:15.652Z,2391.00
2023-05-12T06:14:15.642Z,2461.00
2023-05-12T06:15:15.803Z,2456.00
2023-05-12T06:16:15.868Z,2501.00
2023-05-12T06:17:15.829Z,2510.00
2023-05-12T06:18:15.866Z,2498.00
2023-05-12T06:19:15.896Z,2498.00
2023-05-12T06:20:15.877Z,2321.00
2023-05-12T06:21:15.897Z,2234.00
2023-05-12T06:22:15.920Z,2244.00
2023-05-12T06:23:15.939Z,2264.00
2023-05-12T06:24:15.947Z,2295.00
2023-05-12T06:25:15.952Z,2263.00
2023-05-12T06:26:16.787Z,2201.00
2023-05-12T06:27:15.948Z,2165.00
2023-05-12T06:28:15.968Z,2141.00
2023-05-12T06:29:15.963Z,2120.00
2023-05-12T06:30:16.446Z,2099.00
2023-05-12T06:31:16.894Z,2085.00
2023-05-12T06:32:16.161Z,2115.00
2023-05-12T06:33:16.243Z,2177.00
2023-05-12T06:34:16.290Z,2194.00
2023-05-12T06:35:16.181Z,2181.00
2023-05-12T06:36:16.222Z,2182.00
2023-05-12T06:37:16.120Z,2236.00
2023-05-12T06:38:16.132Z,2236.00
2023-05-12T06:39:16.744Z,2041.00
2023-05-12T06:40:16.138Z,1939.00
2023-05-12T06:41:17.289Z,1940.00
2023-05-12T06:42:16.164Z,1941.00
2023-05-12T06:43:16.135Z,1968.00
2023-05-12T06:44:16.229Z,1992.00
2023-05-12T06:45:16.354Z,2013.00
2023-05-12T06:46:16.176Z,2003.00
2023-05-12T06:47:16.149Z,1992.00
2023-05-12T06:48:16.371Z,1999.00
2023-05-12T06:49:16.190Z,1960.00
2023-05-12T06:50:16.796Z,1931.00
2023-05-12T06:51:16.137Z,1843.00
2023-05-12T06:52:16.138Z,1801.00
2023-05-12T06:53:16.206Z,1739.00
2023-05-12T06:54:16.311Z,1675.00
2023-05-12T06:55:16.326Z,1732.00
2023-05-12T06:56:16.385Z,1741.00
2023-05-12T06:57:16.519Z,1806.00
2023-05-12T06:58:16.549Z,1776.00
2023-05-12T06:59:16.569Z,1683.00
2023-05-12T07:00:16.630Z,1628.00
2023-05-12T07:01:17.327Z,1497.00
2023-05-12T07:02:16.775Z,1314.00
2023-05-12T07:03:16.946Z,1244.00
2023-05-12T07:04:16.913Z,1250.00
2023-05-12T07:05:16.972Z,1223.00
2023-05-12T07:06:17.088Z,1180.00
2023-05-12T07:07:17.092Z,1113.00
2023-05-12T07:08:17.177Z,1115.00
2023-05-12T07:09:17.206Z,1100.00
2023-05-12T07:10:17.252Z,1069.00
2023-05-12T07:11:17.309Z,1084.00
2023-05-12T07:12:17.389Z,1086.00
2023-05-12T07:13:18.320Z,1103.00
2023-05-12T07:14:17.498Z,1109.00
2023-05-12T07:15:17.625Z,1138.00
2023-05-12T07:16:17.654Z,1157.00
2023-05-12T07:17:17.666Z,1138.00
2023-05-12T07:18:17.747Z,1073.00
2023-05-12T07:19:17.822Z,1161.00
2023-05-12T07:20:17.861Z,1145.00
2023-05-12T07:21:17.932Z,1072.00
2023-05-12T07:22:17.992Z,1055.00
2023-05-12T07:23:18.121Z,1100.00
2023-05-12T07:24:18.724Z,873.00
2023-05-12T07:25:19.157Z,747.00
2023-05-12T07:26:18.420Z,749.00
2023-05-12T07:27:18.292Z,790.00
2023-05-12T07:28:18.203Z,890.00
2023-05-12T07:29:18.194Z,1069.00
2023-05-12T07:30:18.226Z,1216.00
2023-05-12T07:31:18.266Z,1093.00
2023-05-12T07:32:18.281Z,1022.00
2023-05-12T07:33:18.420Z,1027.00
2023-05-12T07:34:18.430Z,1091.00
2023-05-12T07:35:18.700Z,1011.00
2023-05-12T07:36:19.702Z,887.00
2023-05-12T07:37:18.506Z,808.00
2023-05-12T07:38:18.861Z,903.00
2023-05-12T07:39:18.489Z,1067.00
2023-05-12T07:40:18.505Z,1056.00
2023-05-12T07:41:19.596Z,1071.00
2023-05-12T07:42:18.483Z,1073.00
2023-05-12T07:43:18.475Z,1088.00
2023-05-12T07:44:18.471Z,1098.00
2023-05-12T07:45:19.659Z,1075.00
2023-05-12T07:46:18.458Z,1085.00
2023-05-12T07:47:18.492Z,1086.00
2023-05-12T07:48:19.314Z,1082.00
2023-05-12T07:49:18.456Z,1072.00
2023-05-12T07:50:18.401Z,1180.00
2023-05-12T07:51:18.401Z,1225.00
2023-05-12T07:52:18.382Z,1139.00
2023-05-12T07:53:18.388Z,1082.00
2023-05-12T07:54:18.424Z,998.00
2023-05-12T07:55:18.760Z,864.00
2023-05-12T07:56:24.324Z,867.00
2023-05-12T07:57:18.436Z,871.00
2023-05-12T07:58:18.469Z,886.00
2023-05-12T07:59:18.400Z,674.00
2023-05-12T08:00:18.410Z,589.00
2023-05-12T08:01:18.387Z,557.00
2023-05-12T08:02:18.462Z,596.00
2023-05-12T08:03:18.403Z,648.00
2023-05-12T08:04:18.386Z,595.00
2023-05-12T08:05:18.487Z,529.00
2023-05-12T08:06:18.275Z,500.00
2023-05-12T08:07:18.268Z,513.00
2023-05-12T08:08:18.281Z,557.00
2023-05-12T08:09:18.183Z,575.00
2023-05-12T08:10:18.161Z,510.00
2023-05-12T08:11:18.121Z,520.00
2023-05-12T08:12:18.128Z,521.00
2023-05-12T08:13:18.081Z,493.00
2023-05-12T08:14:18.043Z,508.00
2023-05-12T08:15:18.263Z,532.00
2023-05-12T08:16:18.016Z,584.00
2023-05-12T08:17:17.978Z,582.00
2023-05-12T08:18:17.944Z,541.00
2023-05-12T08:19:17.894Z,537.00
2023-05-12T08:20:17.825Z,597.00
2023-05-12T08:21:17.821Z,589.00
2023-05-12T08:22:17.752Z,565.00
2023-05-12T08:23:17.800Z,512.00
2023-05-12T08:24:17.694Z,517.00
2023-05-12T08:25:17.831Z,564.00
2023-05-12T08:26:17.633Z,566.00
2023-05-12T08:27:19.235Z,588.00
2023-05-12T08:28:17.600Z,550.00
2023-05-12T08:29:17.475Z,565.00
2023-05-12T08:30:17.421Z,530.00
2023-05-12T08:31:17.396Z,453.00
2023-05-12T08:32:17.525Z,478.00
2023-05-12T08:33:18.235Z,533.00
2023-05-12T08:34:17.307Z,597.00
2023-05-12T08:35:17.235Z,576.00
2023-05-12T08:36:17.167Z,480.00
2023-05-12T08:37:17.120Z,451.00
2023-05-12T08:38:17.280Z,516.00
2023-05-12T08:39:17.050Z,616.00
2023-05-12T08:40:17.354Z,806.00
2023-05-12T08:41:16.988Z,977.00
2023-05-12T08:42:17.018Z,1114.00
2023-05-12T08:43:17.300Z,1318.00
2023-05-12T08:44:16.903Z,1410.00
2023-05-12T08:45:17.877Z,1377.00
2023-05-12T08:46:16.870Z,1531.00
2023-05-12T08:47:16.851Z,1631.00
2023-05-12T08:48:16.932Z,1591.00
2023-05-12T08:49:16.752Z,1381.00
2023-05-12T08:50:16.737Z,1324.00
2023-05-12T08:51:16.752Z,1359.00
2023-05-12T08:52:16.705Z,1359.00
2023-05-12T08:53:16.737Z,1311.00
2023-05-12T08:54:16.646Z,1218.00
2023-05-12T08:55:16.612Z,1108.00
2023-05-12T08:57:16.724Z,943.00
2023-05-12T08:58:16.534Z,822.00
2023-05-12T08:59:16.507Z,812.00
2023-05-12T09:00:16.417Z,903.00
2023-05-12T09:01:16.488Z,1007.00
2023-05-12T09:02:16.564Z,1023.00
2023-05-12T09:03:16.310Z,1035.00
2023-05-12T09:04:16.361Z,1052.00
2023-05-12T09:05:16.185Z,1005.00
2023-05-12T09:06:16.142Z,1002.00
2023-05-12T09:07:16.107Z,766.00
2023-05-12T09:08:16.053Z,643.00
2023-05-12T09:09:16.014Z,658.00
2023-05-12T09:10:29.838Z,682.00
2023-05-12T09:11:16.887Z,536.00
2023-05-12T09:12:16.854Z,436.00
2023-05-12T09:13:16.758Z,405.00
2023-05-12T09:14:15.846Z,400.00
2023-05-12T09:15:15.749Z,400.00
2023-05-12T09:16:15.740Z,429.00
2023-05-12T09:17:15.650Z,500.00
2023-05-12T09:18:15.607Z,558.00
2023-05-12T09:19:15.646Z,594.00
2023-05-12T09:20:30.467Z,585.00
2023-05-12T09:21:16.542Z,536.00
2023-05-12T09:22:15.445Z,400.00
2023-05-12T09:23:15.413Z,400.00
2023-05-12T09:24:15.354Z,400.00
2023-05-12T09:25:15.357Z,400.00
2023-05-12T09:26:15.294Z,400.00
2023-05-12T09:27:15.236Z,431.00
2023-05-12T09:28:15.199Z,479.00
2023-05-12T09:29:21.209Z,551.00
2023-05-12T09:30:16.122Z,553.00
2023-05-12T09:31:15.072Z,562.00
2023-05-12T09:32:14.978Z,577.00
2023-05-12T09:33:15.026Z,579.00
2023-05-12T09:34:14.879Z,613.00
2023-05-12T09:35:14.825Z,593.00
2023-05-12T09:36:14.755Z,491.00
2023-05-12T09:37:15.528Z,493.00
2023-05-12T09:38:14.758Z,507.00
2023-05-12T09:39:14.568Z,530.00
2023-05-12T09:40:14.534Z,523.00
2023-05-12T09:41:14.452Z,552.00
2023-05-12T09:42:14.371Z,530.00
2023-05-12T09:43:15.743Z,535.00
2023-05-12T09:44:14.280Z,537.00
2023-05-12T09:45:14.314Z,515.00
2023-05-12T09:46:14.224Z,572.00
2023-05-12T09:47:14.128Z,603.00
2023-05-12T09:48:14.374Z,556.00
2023-05-12T09:49:14.024Z,493.00
2023-05-12T09:50:15.776Z,515.00
2023-05-12T09:51:13.913Z,580.00
2023-05-12T09:52:14.176Z,614.00
2023-05-12T09:53:13.835Z,551.00
2023-05-12T09:54:13.796Z,500.00
2023-05-12T09:55:13.750Z,516.00
2023-05-12T09:56:13.711Z,480.00
2023-05-12T09:57:13.669Z,400.00
2023-05-12T09:58:13.652Z,400.00
2023-05-12T09:59:13.644Z,400.00
2023-05-12T10:00:29.766Z,400.00
2023-05-12T10:01:22.717Z,400.00
2023-05-12T10:02:14.482Z,400.00
2023-05-12T10:03:13.440Z,400.00
2023-05-12T10:04:13.439Z,400.00
2023-05-12T10:05:13.327Z,400.00
2023-05-12T10:06:13.218Z,400.00
2023-05-12T10:07:13.138Z,400.00
2023-05-12T10:08:13.107Z,400.00
2023-05-12T10:09:13.032Z,400.00
2023-05-12T10:10:12.986Z,465.00
2023-05-12T10:11:12.928Z,544.00
2023-05-12T10:12:12.869Z,503.00
2023-05-12T10:13:12.956Z,514.00
2023-05-12T10:14:12.735Z,500.00
2023-05-12T10:15:13.347Z,515.00
2023-05-12T10:16:12.639Z,460.00
2023-05-12T10:17:12.756Z,415.00
2023-05-12T10:18:12.494Z,493.00
2023-05-12T10:19:13.345Z,656.00
2023-05-12T10:20:12.351Z,1023.00
2023-05-12T10:21:12.250Z,662.00
2023-05-12T10:22:12.239Z,607.00
2023-05-12T10:23:12.142Z,613.00
2023-05-12T10:24:12.088Z,578.00
2023-05-12T10:25:12.038Z,719.00
2023-05-12T10:26:11.972Z,611.00
2023-05-12T10:27:12.890Z,730.00
2023-05-12T10:28:11.942Z,776.00
2023-05-12T10:29:11.735Z,898.00
2023-05-12T10:30:11.681Z,1188.00
2023-05-12T10:31:11.659Z,1463.00
2023-05-12T10:32:11.631Z,1446.00
2023-05-12T10:33:11.450Z,1507.00
2023-05-12T10:34:11.410Z,1793.00
2023-05-12T10:35:11.512Z,1769.00
2023-05-12T10:36:11.254Z,1838.00
2023-05-12T10:37:11.400Z,1857.00
2023-05-12T10:38:11.198Z,1627.00
2023-05-12T10:39:11.127Z,1758.00
2023-05-12T10:40:11.030Z,1365.00
2023-05-12T10:41:10.951Z,1021.00
2023-05-12T10:42:10.918Z,877.00
2023-05-12T10:43:10.885Z,1255.00
2023-05-12T10:44:10.888Z,1237.00
2023-05-12T10:45:11.358Z,1109.00
2023-05-12T10:46:10.861Z,1038.00
2023-05-12T10:47:11.161Z,983.00
2023-05-12T10:48:11.476Z,890.00
2023-05-12T10:49:11.772Z,757.00
2023-05-12T10:50:10.820Z,738.00
2023-05-12T10:51:10.843Z,500.00
2023-05-12T10:52:10.778Z,524.00
2023-05-12T10:53:10.750Z,590.00
2023-05-12T10:54:10.757Z,616.00
2023-05-12T10:55:10.721Z,400.00
2023-05-12T10:56:10.871Z,400.00
2023-05-12T10:57:11.095Z,400.00
2023-05-12T10:58:11.381Z,402.00
2023-05-12T10:59:10.712Z,533.00
2023-05-12T11:00:10.941Z,710.00
2023-05-12T11:01:11.650Z,634.00
2023-05-12T11:02:11.660Z,473.00
2023-05-12T11:03:11.779Z,428.00
2023-05-12T11:04:10.610Z,508.00
2023-05-12T11:05:10.844Z,655.00
2023-05-12T11:06:10.753Z,757.00
2023-05-12T11:07:11.812Z,997.00
2023-05-12T11:08:11.581Z,1363.00
2023-05-12T11:09:11.140Z,1453.00
2023-05-12T11:10:10.710Z,1509.00
2023-05-12T11:11:11.053Z,1603.00
2023-05-12T11:12:10.163Z,1869.00
2023-05-12T11:13:10.118Z,1819.00
2023-05-12T11:14:10.786Z,1694.00
2023-05-12T11:15:10.088Z,1613.00
2023-05-12T11:16:10.095Z,1509.00
2023-05-12T11:17:09.994Z,1448.00
2023-05-12T11:18:10.053Z,1143.00
2023-05-12T11:19:09.964Z,918.00
2023-05-12T11:20:09.998Z,1065.00
2023-05-12T11:21:09.923Z,1272.00
2023-05-12T11:22:09.842Z,1305.00
2023-05-12T11:23:09.967Z,957.00
2023-05-12T11:24:12.918Z,890.00
2023-05-12T11:25:09.869Z,1167.00
2023-05-12T11:26:09.743Z,1284.00
2023-05-12T11:27:09.657Z,1303.00
2023-05-12T11:28:09.591Z,1366.00
2023-05-12T11:29:09.461Z,1139.00
2023-05-12T11:30:09.580Z,799.00
2023-05-12T11:31:09.265Z,628.00
2023-05-12T11:32:09.366Z,692.00
2023-05-12T11:33:10.186Z,690.00
2023-05-12T11:34:13.055Z,714.00
2023-05-12T11:35:08.874Z,699.00
2023-05-12T11:36:08.793Z,728.00
2023-05-12T11:37:08.774Z,770.00
2023-05-12T11:38:08.705Z,818.00
2023-05-12T11:39:08.530Z,903.00
2023-05-12T11:40:08.433Z,1085.00
2023-05-12T11:41:08.337Z,1241.00
2023-05-12T11:42:12.955Z,1104.00
2023-05-12T11:43:09.171Z,809.00
2023-05-12T11:44:08.121Z,866.00
2023-05-12T11:45:08.108Z,1016.00
2023-05-12T11:46:07.927Z,955.00
2023-05-12T11:47:07.795Z,856.00
2023-05-12T11:48:07.908Z,792.00
2023-05-12T11:49:07.619Z,969.00
2023-05-12T11:50:07.576Z,1154.00
2023-05-12T11:51:07.524Z,1280.00
2023-05-12T11:52:07.543Z,1331.00
2023-05-12T11:53:07.420Z,1395.00
2023-05-12T11:54:07.207Z,1285.00
2023-05-12T11:55:07.118Z,1472.00
2023-05-12T11:56:07.023Z,1483.00
2023-05-12T11:57:06.929Z,1338.00
2023-05-12T11:58:06.935Z,1337.00
2023-05-12T11:59:06.795Z,1241.00
2023-05-12T12:00:06.816Z,1297.00
2023-05-12T12:01:06.810Z,1350.00
2023-05-12T12:02:06.844Z,1134.00
2023-05-12T12:03:06.958Z,1218.00
2023-05-12T12:04:07.231Z,1306.00
2023-05-12T12:05:09.192Z,1301.00
2023-05-12T12:06:06.998Z,1127.00
2023-05-12T12:07:07.144Z,1134.00
2023-05-12T12:08:06.860Z,1217.00
2023-05-12T12:09:06.799Z,1309.00
2023-05-12T12:10:06.713Z,1428.00
2023-05-12T12:11:06.650Z,1559.00
2023-05-12T12:12:06.546Z,1690.00